sensor_id;sensor_type;location;lat;lon;timestamp;P1;durP1;ratioP1;P2;durP2;ratioP2
74674;SDS011;63200;48.810;12.352;2023-03-01T00:01:08;28.50;;;12.70;;
74674;SDS011;63200;48.810;12.352;2023-03-01T00:03:38;32.30;;;14.03;;
74674;SDS011;63200;48.810;12.352;2023-03-01T00:06:04;31.30;;;13.27;;
74674;SDS011;63200;48.810;12.352;2023-03-01T00:08:30;25.83;;;13.93;;
74674;SDS011;63200;48.810;12.352;2023-03-01T00:11:01;27.43;;;13.07;;
74674;SDS011;63200;48.810;12.352;2023-03-01T00:13:27;29.23;;;13.87;;
74674;SDS011;63200;48.810;12.352;2023-03-01T00:15:52;25.27;;;12.53;;
74674;SDS011;63200;48.810;12.352;2023-03-01T00:18:17;25.17;;;12.90;;
74674;SDS011;63200;48.810;12.352;2023-03-01T00:20:49;30.03;;;14.10;;
74674;SDS011;63200;48.810;12.352;2023-03-01T00:23:16;26.80;;;13.43;;
74674;SDS011;63200;48.810;12.352;2023-03-01T00:25:42;25.03;;;13.10;;
74674;SDS011;63200;48.810;12.352;2023-03-01T00:28:07;26.83;;;13.20;;
74674;SDS011;63200;48.810;12.352;2023-03-01T00:30:32;29.73;;;13.80;;
74674;SDS011;63200;48.810;12.352;2023-03-01T00:32:58;28.63;;;13.47;;
74674;SDS011;63200;48.810;12.352;2023-03-01T00:35:23;28.63;;;14.00;;
74674;SDS011;63200;48.810;12.352;2023-03-01T00:37:48;33.53;;;15.27;;
74674;SDS011;63200;48.810;12.352;2023-03-01T00:40:18;29.67;;;14.13;;
74674;SDS011;63200;48.810;12.352;2023-03-01T00:42:43;33.90;;;14.80;;
74674;SDS011;63200;48.810;12.352;2023-03-01T00:45:09;38.77;;;16.03;;
74674;SDS011;63200;48.810;12.352;2023-03-01T00:47:34;40.57;;;17.10;;
74674;SDS011;63200;48.810;12.352;2023-03-01T00:49:59;39.97;;;17.23;;
74674;SDS011;63200;48.810;12.352;2023-03-01T00:52:25;41.60;;;16.27;;
74674;SDS011;63200;48.810;12.352;2023-03-01T00:54:51;34.43;;;15.53;;
74674;SDS011;63200;48.810;12.352;2023-03-01T00:57:17;33.60;;;14.60;;
74674;SDS011;63200;48.810;12.352;2023-03-01T00:59:42;31.27;;;13.70;;
74674;SDS011;63200;48.810;12.352;2023-03-01T01:02:08;29.60;;;13.93;;
74674;SDS011;63200;48.810;12.352;2023-03-01T01:04:33;32.43;;;14.70;;
74674;SDS011;63200;48.810;12.352;2023-03-01T01:06:58;31.27;;;14.20;;
74674;SDS011;63200;48.810;12.352;2023-03-01T01:09:24;27.70;;;13.20;;
74674;SDS011;63200;48.810;12.352;2023-03-01T01:11:50;32.53;;;13.40;;
74674;SDS011;63200;48.810;12.352;2023-03-01T01:14:16;26.83;;;13.10;;
74674;SDS011;63200;48.810;12.352;2023-03-01T01:16:43;30.53;;;13.67;;
74674;SDS011;63200;48.810;12.352;2023-03-01T01:19:09;28.20;;;12.87;;
74674;SDS011;63200;48.810;12.352;2023-03-01T01:21:36;26.60;;;13.07;;
74674;SDS011;63200;48.810;12.352;2023-03-01T01:24:02;27.17;;;12.77;;
74674;SDS011;63200;48.810;12.352;2023-03-01T01:26:30;26.53;;;12.63;;
74674;SDS011;63200;48.810;12.352;2023-03-01T01:28:56;29.17;;;12.90;;
74674;SDS011;63200;48.810;12.352;2023-03-01T01:31:22;26.10;;;12.33;;
74674;SDS011;63200;48.810;12.352;2023-03-01T01:33:49;25.23;;;12.40;;
74674;SDS011;63200;48.810;12.352;2023-03-01T01:36:15;25.57;;;12.93;;
74674;SDS011;63200;48.810;12.352;2023-03-01T01:38:41;26.43;;;14.00;;
74674;SDS011;63200;48.810;12.352;2023-03-01T01:41:07;27.23;;;12.90;;
74674;SDS011;63200;48.810;12.352;2023-03-01T01:43:37;26.17;;;12.80;;
74674;SDS011;63200;48.810;12.352;2023-03-01T01:48:55;24.27;;;11.77;;
74674;SDS011;63200;48.810;12.352;2023-03-01T01:51:38;24.43;;;12.30;;
74674;SDS011;63200;48.810;12.352;2023-03-01T01:54:12;26.70;;;12.73;;
74674;SDS011;63200;48.810;12.352;2023-03-01T01:56:43;26.90;;;13.10;;
74674;SDS011;63200;48.810;12.352;2023-03-01T01:59:12;25.70;;;12.43;;
74674;SDS011;63200;48.810;12.352;2023-03-01T02:01:39;25.77;;;11.67;;
74674;SDS011;63200;48.810;12.352;2023-03-01T02:04:04;26.23;;;12.33;;
74674;SDS011;63200;48.810;12.352;2023-03-01T02:06:32;23.97;;;12.97;;
74674;SDS011;63200;48.810;12.352;2023-03-01T02:09:03;27.23;;;11.77;;
74674;SDS011;63200;48.810;12.352;2023-03-01T02:11:32;29.60;;;14.07;;
74674;SDS011;63200;48.810;12.352;2023-03-01T02:13:58;30.93;;;13.93;;
74674;SDS011;63200;48.810;12.352;2023-03-01T02:16:25;28.77;;;13.53;;
74674;SDS011;63200;48.810;12.352;2023-03-01T02:18:51;26.10;;;12.20;;
74674;SDS011;63200;48.810;12.352;2023-03-01T02:24:30;29.47;;;12.43;;
74674;SDS011;63200;48.810;12.352;2023-03-01T02:27:03;26.57;;;12.23;;
74674;SDS011;63200;48.810;12.352;2023-03-01T02:29:29;27.83;;;13.13;;
74674;SDS011;63200;48.810;12.352;2023-03-01T02:31:55;25.33;;;13.63;;
74674;SDS011;63200;48.810;12.352;2023-03-01T02:34:24;25.27;;;12.77;;
74674;SDS011;63200;48.810;12.352;2023-03-01T02:36:52;27.33;;;13.03;;
74674;SDS011;63200;48.810;12.352;2023-03-01T02:39:28;28.13;;;12.97;;
74674;SDS011;63200;48.810;12.352;2023-03-01T02:41:58;27.93;;;12.70;;
74674;SDS011;63200;48.810;12.352;2023-03-01T02:44:25;28.97;;;12.50;;
74674;SDS011;63200;48.810;12.352;2023-03-01T02:46:51;21.97;;;11.57;;
74674;SDS011;63200;48.810;12.352;2023-03-01T02:49:25;26.73;;;12.57;;
74674;SDS011;63200;48.810;12.352;2023-03-01T02:57:24;29.37;;;13.13;;
74674;SDS011;63200;48.810;12.352;2023-03-01T02:59:52;29.93;;;13.10;;
74674;SDS011;63200;48.810;12.352;2023-03-01T03:02:21;26.47;;;12.73;;
74674;SDS011;63200;48.810;12.352;2023-03-01T03:05:01;27.60;;;12.77;;
74674;SDS011;63200;48.810;12.352;2023-03-01T03:07:40;31.43;;;12.57;;
74674;SDS011;63200;48.810;12.352;2023-03-01T03:10:07;28.57;;;13.67;;
74674;SDS011;63200;48.810;12.352;2023-03-01T03:12:36;28.73;;;12.73;;
74674;SDS011;63200;48.810;12.352;2023-03-01T03:15:02;30.87;;;13.17;;
74674;SDS011;63200;48.810;12.352;2023-03-01T03:17:33;28.37;;;13.10;;
74674;SDS011;63200;48.810;12.352;2023-03-01T03:20:03;29.90;;;12.83;;
74674;SDS011;63200;48.810;12.352;2023-03-01T03:22:31;27.67;;;14.47;;
74674;SDS011;63200;48.810;12.352;2023-03-01T03:24:56;29.90;;;13.20;;
74674;SDS011;63200;48.810;12.352;2023-03-01T03:27:22;33.47;;;14.13;;
74674;SDS011;63200;48.810;12.352;2023-03-01T03:29:47;33.50;;;14.30;;
74674;SDS011;63200;48.810;12.352;2023-03-01T03:32:12;27.93;;;12.93;;
74674;SDS011;63200;48.810;12.352;2023-03-01T03:34:37;27.13;;;12.93;;
74674;SDS011;63200;48.810;12.352;2023-03-01T03:37:03;29.70;;;13.13;;
74674;SDS011;63200;48.810;12.352;2023-03-01T03:39:28;29.43;;;13.47;;
74674;SDS011;63200;48.810;12.352;2023-03-01T03:41:59;27.63;;;12.77;;
74674;SDS011;63200;48.810;12.352;2023-03-01T03:44:25;25.27;;;12.03;;
74674;SDS011;63200;48.810;12.352;2023-03-01T03:46:50;28.53;;;12.63;;
74674;SDS011;63200;48.810;12.352;2023-03-01T03:49:15;30.80;;;12.63;;
74674;SDS011;63200;48.810;12.352;2023-03-01T03:51:40;28.43;;;13.20;;
74674;SDS011;63200;48.810;12.352;2023-03-01T03:54:06;30.17;;;13.73;;
74674;SDS011;63200;48.810;12.352;2023-03-01T03:56:31;28.50;;;12.93;;
74674;SDS011;63200;48.810;12.352;2023-03-01T03:58:56;28.10;;;13.37;;
74674;SDS011;63200;48.810;12.352;2023-03-01T04:01:22;27.80;;;13.00;;
74674;SDS011;63200;48.810;12.352;2023-03-01T04:03:47;33.40;;;13.90;;
74674;SDS011;63200;48.810;12.352;2023-03-01T04:06:13;27.47;;;12.67;;
74674;SDS011;63200;48.810;12.352;2023-03-01T04:08:39;31.13;;;13.63;;
74674;SDS011;63200;48.810;12.352;2023-03-01T04:11:05;27.33;;;13.37;;
74674;SDS011;63200;48.810;12.352;2023-03-01T04:13:50;24.83;;;12.17;;
74674;SDS011;63200;48.810;12.352;2023-03-01T04:16:17;27.87;;;12.43;;
74674;SDS011;63200;48.810;12.352;2023-03-01T04:18:43;23.97;;;11.83;;
74674;SDS011;63200;48.810;12.352;2023-03-01T04:21:08;26.80;;;12.17;;
74674;SDS011;63200;48.810;12.352;2023-03-01T04:23:35;27.20;;;12.60;;
74674;SDS011;63200;48.810;12.352;2023-03-01T04:26:00;24.57;;;12.17;;
74674;SDS011;63200;48.810;12.352;2023-03-01T04:28:41;27.40;;;12.17;;
74674;SDS011;63200;48.810;12.352;2023-03-01T04:31:12;34.57;;;12.47;;
74674;SDS011;63200;48.810;12.352;2023-03-01T04:33:43;27.77;;;11.97;;
74674;SDS011;63200;48.810;12.352;2023-03-01T04:36:13;24.63;;;11.73;;
74674;SDS011;63200;48.810;12.352;2023-03-01T04:38:40;24.33;;;11.60;;
74674;SDS011;63200;48.810;12.352;2023-03-01T04:41:06;31.83;;;11.80;;
74674;SDS011;63200;48.810;12.352;2023-03-01T04:43:33;27.33;;;12.07;;
74674;SDS011;63200;48.810;12.352;2023-03-01T04:46:00;29.90;;;13.10;;
74674;SDS011;63200;48.810;12.352;2023-03-01T04:48:31;27.73;;;11.97;;
74674;SDS011;63200;48.810;12.352;2023-03-01T04:50:57;30.30;;;13.27;;
74674;SDS011;63200;48.810;12.352;2023-03-01T04:53:24;22.97;;;11.20;;
74674;SDS011;63200;48.810;12.352;2023-03-01T04:55:49;25.17;;;11.43;;
74674;SDS011;63200;48.810;12.352;2023-03-01T04:58:15;28.50;;;11.53;;
74674;SDS011;63200;48.810;12.352;2023-03-01T05:00:41;30.70;;;12.03;;
74674;SDS011;63200;48.810;12.352;2023-03-01T05:03:07;30.67;;;12.93;;
74674;SDS011;63200;48.810;12.352;2023-03-01T05:05:34;26.97;;;12.33;;
74674;SDS011;63200;48.810;12.352;2023-03-01T05:08:05;30.67;;;12.67;;
74674;SDS011;63200;48.810;12.352;2023-03-01T05:10:33;35.47;;;12.87;;
74674;SDS011;63200;48.810;12.352;2023-03-01T05:13:00;23.80;;;11.93;;
74674;SDS011;63200;48.810;12.352;2023-03-01T05:15:27;26.07;;;11.33;;
74674;SDS011;63200;48.810;12.352;2023-03-01T05:17:54;31.23;;;12.07;;
74674;SDS011;63200;48.810;12.352;2023-03-01T05:20:23;27.53;;;12.67;;
74674;SDS011;63200;48.810;12.352;2023-03-01T05:22:49;31.40;;;13.07;;
74674;SDS011;63200;48.810;12.352;2023-03-01T05:25:15;31.10;;;12.70;;
74674;SDS011;63200;48.810;12.352;2023-03-01T05:27:41;31.13;;;13.57;;
74674;SDS011;63200;48.810;12.352;2023-03-01T05:30:10;30.43;;;12.27;;
74674;SDS011;63200;48.810;12.352;2023-03-01T05:32:42;29.47;;;12.57;;
74674;SDS011;63200;48.810;12.352;2023-03-01T05:35:12;23.10;;;11.77;;
74674;SDS011;63200;48.810;12.352;2023-03-01T05:37:40;26.77;;;11.57;;
74674;SDS011;63200;48.810;12.352;2023-03-01T05:40:07;25.27;;;11.63;;
74674;SDS011;63200;48.810;12.352;2023-03-01T05:42:40;25.43;;;13.27;;
74674;SDS011;63200;48.810;12.352;2023-03-01T05:45:07;29.47;;;11.83;;
74674;SDS011;63200;48.810;12.352;2023-03-01T05:47:34;27.00;;;12.53;;
74674;SDS011;63200;48.810;12.352;2023-03-01T05:50:00;32.00;;;13.17;;
74674;SDS011;63200;48.810;12.352;2023-03-01T05:52:25;26.27;;;11.87;;
74674;SDS011;63200;48.810;12.352;2023-03-01T05:54:51;28.87;;;12.07;;
74674;SDS011;63200;48.810;12.352;2023-03-01T05:57:16;25.50;;;11.97;;
74674;SDS011;63200;48.810;12.352;2023-03-01T05:59:41;28.63;;;12.43;;
74674;SDS011;63200;48.810;12.352;2023-03-01T06:02:07;35.93;;;13.10;;
74674;SDS011;63200;48.810;12.352;2023-03-01T06:04:32;30.47;;;12.37;;
74674;SDS011;63200;48.810;12.352;2023-03-01T06:06:57;33.57;;;11.87;;
74674;SDS011;63200;48.810;12.352;2023-03-01T06:09:23;29.70;;;12.53;;
74674;SDS011;63200;48.810;12.352;2023-03-01T06:11:48;29.10;;;12.93;;
74674;SDS011;63200;48.810;12.352;2023-03-01T06:14:13;27.40;;;13.13;;
74674;SDS011;63200;48.810;12.352;2023-03-01T06:16:39;30.90;;;13.03;;
74674;SDS011;63200;48.810;12.352;2023-03-01T06:19:05;29.77;;;12.37;;
74674;SDS011;63200;48.810;12.352;2023-03-01T06:21:30;28.77;;;13.00;;
74674;SDS011;63200;48.810;12.352;2023-03-01T06:23:55;30.53;;;13.63;;
74674;SDS011;63200;48.810;12.352;2023-03-01T06:26:21;35.13;;;14.53;;
74674;SDS011;63200;48.810;12.352;2023-03-01T06:28:46;32.03;;;14.23;;
74674;SDS011;63200;48.810;12.352;2023-03-01T06:31:11;32.20;;;13.93;;
74674;SDS011;63200;48.810;12.352;2023-03-01T06:33:37;35.30;;;14.17;;
74674;SDS011;63200;48.810;12.352;2023-03-01T06:36:02;31.87;;;13.13;;
74674;SDS011;63200;48.810;12.352;2023-03-01T06:38:28;34.23;;;13.33;;
74674;SDS011;63200;48.810;12.352;2023-03-01T06:40:54;30.50;;;13.70;;
74674;SDS011;63200;48.810;12.352;2023-03-01T06:43:20;27.50;;;12.97;;
74674;SDS011;63200;48.810;12.352;2023-03-01T06:45:45;27.27;;;13.13;;
74674;SDS011;63200;48.810;12.352;2023-03-01T06:48:11;27.63;;;12.57;;
74674;SDS011;63200;48.810;12.352;2023-03-01T06:50:36;28.95;;;13.20;;
74674;SDS011;63200;48.810;12.352;2023-03-01T06:53:03;23.80;;;13.35;;
74674;SDS011;63200;48.810;12.352;2023-03-01T06:55:29;28.45;;;14.00;;
74674;SDS011;63200;48.810;12.352;2023-03-01T06:57:57;28.63;;;14.80;;
74674;SDS011;63200;48.810;12.352;2023-03-01T07:00:24;24.63;;;12.90;;
74674;SDS011;63200;48.810;12.352;2023-03-01T07:02:51;27.65;;;14.25;;
74674;SDS011;63200;48.810;12.352;2023-03-01T07:05:17;30.10;;;16.55;;
74674;SDS011;63200;48.810;12.352;2023-03-01T07:07:42;25.95;;;14.85;;
74674;SDS011;63200;48.810;12.352;2023-03-01T07:10:08;26.10;;;15.30;;
74674;SDS011;63200;48.810;12.352;2023-03-01T07:12:34;27.55;;;14.82;;
74674;SDS011;63200;48.810;12.352;2023-03-01T07:14:59;26.58;;;15.55;;
74674;SDS011;63200;48.810;12.352;2023-03-01T07:17:24;26.95;;;15.48;;
74674;SDS011;63200;48.810;12.352;2023-03-01T07:19:50;30.80;;;16.08;;
74674;SDS011;63200;48.810;12.352;2023-03-01T07:22:15;26.90;;;15.18;;
74674;SDS011;63200;48.810;12.352;2023-03-01T07:24:41;28.98;;;16.13;;
74674;SDS011;63200;48.810;12.352;2023-03-01T07:27:07;29.23;;;16.00;;
74674;SDS011;63200;48.810;12.352;2023-03-01T07:29:32;27.38;;;15.23;;
74674;SDS011;63200;48.810;12.352;2023-03-01T07:31:58;26.80;;;15.52;;
74674;SDS011;63200;48.810;12.352;2023-03-01T07:34:24;26.63;;;15.20;;
74674;SDS011;63200;48.810;12.352;2023-03-01T07:36:49;27.35;;;15.63;;
74674;SDS011;63200;48.810;12.352;2023-03-01T07:39:14;27.70;;;16.13;;
74674;SDS011;63200;48.810;12.352;2023-03-01T07:41:40;26.30;;;16.00;;
74674;SDS011;63200;48.810;12.352;2023-03-01T07:44:05;30.27;;;15.55;;
74674;SDS011;63200;48.810;12.352;2023-03-01T07:46:30;38.05;;;17.17;;
74674;SDS011;63200;48.810;12.352;2023-03-01T07:48:56;33.78;;;18.58;;
74674;SDS011;63200;48.810;12.352;2023-03-01T07:51:22;31.58;;;17.70;;
74674;SDS011;63200;48.810;12.352;2023-03-01T07:53:48;32.25;;;18.50;;
74674;SDS011;63200;48.810;12.352;2023-03-01T07:56:14;31.13;;;17.92;;
74674;SDS011;63200;48.810;12.352;2023-03-01T07:58:43;32.45;;;16.10;;
74674;SDS011;63200;48.810;12.352;2023-03-01T08:01:11;37.38;;;17.20;;
74674;SDS011;63200;48.810;12.352;2023-03-01T08:03:38;32.28;;;17.50;;
74674;SDS011;63200;48.810;12.352;2023-03-01T08:06:04;28.52;;;16.23;;
74674;SDS011;63200;48.810;12.352;2023-03-01T08:08:31;29.55;;;16.33;;
74674;SDS011;63200;48.810;12.352;2023-03-01T08:10:58;34.35;;;17.33;;
74674;SDS011;63200;48.810;12.352;2023-03-01T08:13:24;31.75;;;17.05;;
74674;SDS011;63200;48.810;12.352;2023-03-01T08:15:49;33.58;;;16.38;;
74674;SDS011;63200;48.810;12.352;2023-03-01T08:18:15;29.85;;;16.10;;
74674;SDS011;63200;48.810;12.352;2023-03-01T08:20:41;27.90;;;15.52;;
74674;SDS011;63200;48.810;12.352;2023-03-01T08:23:06;27.05;;;14.80;;
74674;SDS011;63200;48.810;12.352;2023-03-01T08:25:32;30.67;;;15.73;;
74674;SDS011;63200;48.810;12.352;2023-03-01T08:27:57;28.50;;;14.55;;
74674;SDS011;63200;48.810;12.352;2023-03-01T08:30:23;31.35;;;15.73;;
74674;SDS011;63200;48.810;12.352;2023-03-01T08:32:49;32.03;;;16.35;;
74674;SDS011;63200;48.810;12.352;2023-03-01T08:35:15;31.38;;;17.25;;
74674;SDS011;63200;48.810;12.352;2023-03-01T08:37:40;29.65;;;14.30;;
74674;SDS011;63200;48.810;12.352;2023-03-01T08:40:06;28.67;;;15.25;;
74674;SDS011;63200;48.810;12.352;2023-03-01T08:42:34;28.48;;;15.63;;
74674;SDS011;63200;48.810;12.352;2023-03-01T08:45:00;28.27;;;14.45;;
74674;SDS011;63200;48.810;12.352;2023-03-01T08:47:25;32.30;;;15.32;;
74674;SDS011;63200;48.810;12.352;2023-03-01T08:49:51;28.52;;;14.20;;
74674;SDS011;63200;48.810;12.352;2023-03-01T08:52:18;33.30;;;15.55;;
74674;SDS011;63200;48.810;12.352;2023-03-01T08:54:44;29.63;;;14.88;;
74674;SDS011;63200;48.810;12.352;2023-03-01T08:57:10;33.03;;;16.58;;
74674;SDS011;63200;48.810;12.352;2023-03-01T08:59:35;30.42;;;14.82;;
74674;SDS011;63200;48.810;12.352;2023-03-01T09:02:02;29.27;;;14.80;;
74674;SDS011;63200;48.810;12.352;2023-03-01T09:04:29;32.47;;;15.85;;
74674;SDS011;63200;48.810;12.352;2023-03-01T09:06:54;41.13;;;19.02;;
74674;SDS011;63200;48.810;12.352;2023-03-01T09:09:19;28.20;;;14.13;;
74674;SDS011;63200;48.810;12.352;2023-03-01T09:11:45;28.67;;;13.40;;
74674;SDS011;63200;48.810;12.352;2023-03-01T09:14:12;26.45;;;14.30;;
74674;SDS011;63200;48.810;12.352;2023-03-01T09:16:38;25.92;;;14.88;;
74674;SDS011;63200;48.810;12.352;2023-03-01T09:19:04;29.05;;;13.90;;
74674;SDS011;63200;48.810;12.352;2023-03-01T09:21:30;29.50;;;14.75;;
74674;SDS011;63200;48.810;12.352;2023-03-01T09:23:56;34.42;;;16.58;;
74674;SDS011;63200;48.810;12.352;2023-03-01T09:26:22;28.30;;;14.40;;
74674;SDS011;63200;48.810;12.352;2023-03-01T09:28:49;26.10;;;14.70;;
74674;SDS011;63200;48.810;12.352;2023-03-01T09:31:16;26.33;;;13.43;;
74674;SDS011;63200;48.810;12.352;2023-03-01T09:33:44;27.73;;;13.77;;
74674;SDS011;63200;48.810;12.352;2023-03-01T09:36:12;29.15;;;14.10;;
74674;SDS011;63200;48.810;12.352;2023-03-01T09:38:39;24.27;;;12.63;;
74674;SDS011;63200;48.810;12.352;2023-03-01T09:43:44;26.08;;;12.20;;
74674;SDS011;63200;48.810;12.352;2023-03-01T09:46:14;26.30;;;15.80;;
74674;SDS011;63200;48.810;12.352;2023-03-01T09:48:43;22.55;;;13.00;;
74674;SDS011;63200;48.810;12.352;2023-03-01T09:51:15;25.42;;;12.75;;
74674;SDS011;63200;48.810;12.352;2023-03-01T09:53:54;31.73;;;13.70;;
74674;SDS011;63200;48.810;12.352;2023-03-01T09:56:24;29.83;;;13.13;;
74674;SDS011;63200;48.810;12.352;2023-03-01T10:07:20;23.50;;;12.95;;
74674;SDS011;63200;48.810;12.352;2023-03-01T10:10:04;28.58;;;14.75;;
74674;SDS011;63200;48.810;12.352;2023-03-01T10:12:37;23.20;;;13.52;;
74674;SDS011;63200;48.810;12.352;2023-03-01T10:15:10;29.05;;;14.32;;
74674;SDS011;63200;48.810;12.352;2023-03-01T10:17:41;22.23;;;12.10;;
74674;SDS011;63200;48.810;12.352;2023-03-01T10:22:46;22.48;;;13.05;;
74674;SDS011;63200;48.810;12.352;2023-03-01T10:25:15;26.42;;;13.35;;
74674;SDS011;63200;48.810;12.352;2023-03-01T10:27:59;24.95;;;12.90;;
74674;SDS011;63200;48.810;12.352;2023-03-01T10:30:37;25.95;;;12.70;;
74674;SDS011;63200;48.810;12.352;2023-03-01T10:33:39;23.85;;;13.38;;
74674;SDS011;63200;48.810;12.352;2023-03-01T10:36:00;24.88;;;13.68;;
74674;SDS011;63200;48.810;12.352;2023-03-01T10:38:26;27.10;;;13.95;;
74674;SDS011;63200;48.810;12.352;2023-03-01T10:40:57;23.67;;;12.27;;
74674;SDS011;63200;48.810;12.352;2023-03-01T10:43:45;27.83;;;13.48;;
74674;SDS011;63200;48.810;12.352;2023-03-01T10:46:49;25.40;;;12.32;;
74674;SDS011;63200;48.810;12.352;2023-03-01T10:49:18;23.88;;;13.90;;
74674;SDS011;63200;48.810;12.352;2023-03-01T10:51:45;23.42;;;12.40;;
74674;SDS011;63200;48.810;12.352;2023-03-01T10:54:26;24.35;;;13.15;;
74674;SDS011;63200;48.810;12.352;2023-03-01T10:56:54;24.45;;;13.73;;
74674;SDS011;63200;48.810;12.352;2023-03-01T10:59:26;23.90;;;12.85;;
74674;SDS011;63200;48.810;12.352;2023-03-01T11:02:20;23.27;;;11.73;;
74674;SDS011;63200;48.810;12.352;2023-03-01T11:04:57;21.20;;;12.23;;
74674;SDS011;63200;48.810;12.352;2023-03-01T11:07:24;23.13;;;12.32;;
74674;SDS011;63200;48.810;12.352;2023-03-01T11:09:49;19.88;;;11.13;;
74674;SDS011;63200;48.810;12.352;2023-03-01T11:12:15;19.95;;;11.60;;
74674;SDS011;63200;48.810;12.352;2023-03-01T11:14:48;20.38;;;11.48;;
74674;SDS011;63200;48.810;12.352;2023-03-01T11:22:37;20.38;;;11.77;;
74674;SDS011;63200;48.810;12.352;2023-03-01T11:25:13;20.05;;;9.77;;
74674;SDS011;63200;48.810;12.352;2023-03-01T11:27:43;19.58;;;11.43;;
74674;SDS011;63200;48.810;12.352;2023-03-01T11:30:27;22.75;;;12.40;;
74674;SDS011;63200;48.810;12.352;2023-03-01T11:35:34;22.05;;;12.30;;
74674;SDS011;63200;48.810;12.352;2023-03-01T11:40:42;19.33;;;12.10;;
74674;SDS011;63200;48.810;12.352;2023-03-01T11:46:41;20.60;;;11.45;;
74674;SDS011;63200;48.810;12.352;2023-03-01T11:49:37;22.35;;;12.05;;
74674;SDS011;63200;48.810;12.352;2023-03-01T12:03:13;22.80;;;12.23;;
74674;SDS011;63200;48.810;12.352;2023-03-01T12:06:31;23.38;;;12.30;;
74674;SDS011;63200;48.810;12.352;2023-03-01T12:11:53;21.42;;;11.50;;
74674;SDS011;63200;48.810;12.352;2023-03-01T12:14:49;23.02;;;13.13;;
74674;SDS011;63200;48.810;12.352;2023-03-01T12:17:33;22.98;;;11.65;;
74674;SDS011;63200;48.810;12.352;2023-03-01T12:20:49;22.77;;;11.85;;
74674;SDS011;63200;48.810;12.352;2023-03-01T12:23:33;19.58;;;11.02;;
74674;SDS011;63200;48.810;12.352;2023-03-01T12:29:09;19.40;;;10.98;;
74674;SDS011;63200;48.810;12.352;2023-03-01T12:50:26;20.65;;;10.85;;
74674;SDS011;63200;48.810;12.352;2023-03-01T12:53:00;23.60;;;12.50;;
74674;SDS011;63200;48.810;12.352;2023-03-01T13:03:51;17.58;;;11.48;;
74674;SDS011;63200;48.810;12.352;2023-03-01T13:06:44;18.15;;;10.70;;
74674;SDS011;63200;48.810;12.352;2023-03-01T13:17:49;19.85;;;11.68;;
74674;SDS011;63200;48.810;12.352;2023-03-01T13:20:19;19.00;;;11.48;;
74674;SDS011;63200;48.810;12.352;2023-03-01T13:22:46;19.23;;;10.73;;
74674;SDS011;63200;48.810;12.352;2023-03-01T13:25:21;18.45;;;11.65;;
74674;SDS011;63200;48.810;12.352;2023-03-01T13:27:47;21.83;;;12.10;;
74674;SDS011;63200;48.810;12.352;2023-03-01T13:35:57;19.17;;;10.98;;
74674;SDS011;63200;48.810;12.352;2023-03-01T13:41:04;24.30;;;11.02;;
74674;SDS011;63200;48.810;12.352;2023-03-01T13:43:37;19.92;;;12.07;;
74674;SDS011;63200;48.810;12.352;2023-03-01T13:48:44;25.33;;;12.15;;
74674;SDS011;63200;48.810;12.352;2023-03-01T13:51:13;20.15;;;13.10;;
74674;SDS011;63200;48.810;12.352;2023-03-01T13:53:43;20.73;;;11.55;;
74674;SDS011;63200;48.810;12.352;2023-03-01T13:56:18;20.77;;;12.38;;
74674;SDS011;63200;48.810;12.352;2023-03-01T13:59:00;20.02;;;11.93;;
74674;SDS011;63200;48.810;12.352;2023-03-01T14:01:30;21.42;;;10.27;;
74674;SDS011;63200;48.810;12.352;2023-03-01T14:03:57;23.50;;;12.25;;
74674;SDS011;63200;48.810;12.352;2023-03-01T14:06:24;20.70;;;12.20;;
74674;SDS011;63200;48.810;12.352;2023-03-01T14:08:52;24.13;;;11.25;;
74674;SDS011;63200;48.810;12.352;2023-03-01T14:11:35;19.48;;;11.82;;
74674;SDS011;63200;48.810;12.352;2023-03-01T14:14:23;22.35;;;11.90;;
74674;SDS011;63200;48.810;12.352;2023-03-01T14:17:16;20.27;;;11.90;;
74674;SDS011;63200;48.810;12.352;2023-03-01T14:22:46;24.45;;;13.35;;
74674;SDS011;63200;48.810;12.352;2023-03-01T14:25:19;22.02;;;13.15;;
74674;SDS011;63200;48.810;12.352;2023-03-01T14:27:51;25.77;;;12.55;;
74674;SDS011;63200;48.810;12.352;2023-03-01T14:30:27;26.25;;;14.07;;
74674;SDS011;63200;48.810;12.352;2023-03-01T14:33:02;22.48;;;12.95;;
74674;SDS011;63200;48.810;12.352;2023-03-01T14:35:31;26.60;;;14.10;;
74674;SDS011;63200;48.810;12.352;2023-03-01T14:37:58;28.17;;;14.02;;
74674;SDS011;63200;48.810;12.352;2023-03-01T14:40:25;28.15;;;15.90;;
74674;SDS011;63200;48.810;12.352;2023-03-01T14:42:51;26.67;;;15.13;;
74674;SDS011;63200;48.810;12.352;2023-03-01T14:45:18;22.73;;;13.77;;
74674;SDS011;63200;48.810;12.352;2023-03-01T14:47:43;25.58;;;14.88;;
74674;SDS011;63200;48.810;12.352;2023-03-01T14:52:59;26.45;;;14.43;;
74674;SDS011;63200;48.810;12.352;2023-03-01T14:55:36;25.85;;;14.43;;
74674;SDS011;63200;48.810;12.352;2023-03-01T14:58:08;28.05;;;14.90;;
74674;SDS011;63200;48.810;12.352;2023-03-01T15:00:37;29.17;;;14.88;;
74674;SDS011;63200;48.810;12.352;2023-03-01T15:03:08;22.77;;;14.10;;
74674;SDS011;63200;48.810;12.352;2023-03-01T15:05:38;25.80;;;14.10;;
74674;SDS011;63200;48.810;12.352;2023-03-01T15:08:04;28.13;;;13.68;;
74674;SDS011;63200;48.810;12.352;2023-03-01T15:10:31;29.70;;;14.73;;
74674;SDS011;63200;48.810;12.352;2023-03-01T15:13:20;25.70;;;14.18;;
74674;SDS011;63200;48.810;12.352;2023-03-01T15:15:47;28.58;;;14.95;;
74674;SDS011;63200;48.810;12.352;2023-03-01T15:18:20;28.00;;;15.15;;
74674;SDS011;63200;48.810;12.352;2023-03-01T15:20:48;26.35;;;14.32;;
74674;SDS011;63200;48.810;12.352;2023-03-01T15:23:28;24.77;;;14.25;;
74674;SDS011;63200;48.810;12.352;2023-03-01T15:25:55;28.75;;;14.48;;
74674;SDS011;63200;48.810;12.352;2023-03-01T15:28:22;25.45;;;13.88;;
74674;SDS011;63200;48.810;12.352;2023-03-01T15:31:13;30.85;;;15.13;;
74674;SDS011;63200;48.810;12.352;2023-03-01T15:33:47;28.73;;;15.27;;
74674;SDS011;63200;48.810;12.352;2023-03-01T15:36:33;25.85;;;14.07;;
74674;SDS011;63200;48.810;12.352;2023-03-01T15:38:59;26.52;;;14.38;;
74674;SDS011;63200;48.810;12.352;2023-03-01T15:41:32;27.30;;;14.13;;
74674;SDS011;63200;48.810;12.352;2023-03-01T15:44:16;27.73;;;15.38;;
74674;SDS011;63200;48.810;12.352;2023-03-01T15:46:49;26.25;;;14.70;;
74674;SDS011;63200;48.810;12.352;2023-03-01T15:49:22;29.08;;;16.00;;
74674;SDS011;63200;48.810;12.352;2023-03-01T15:51:50;28.67;;;15.75;;
74674;SDS011;63200;48.810;12.352;2023-03-01T15:54:20;29.48;;;15.52;;
74674;SDS011;63200;48.810;12.352;2023-03-01T15:56:48;27.02;;;14.43;;
74674;SDS011;63200;48.810;12.352;2023-03-01T15:59:13;30.05;;;15.70;;
74674;SDS011;63200;48.810;12.352;2023-03-01T16:01:39;31.83;;;15.07;;
74674;SDS011;63200;48.810;12.352;2023-03-01T16:04:11;25.48;;;13.57;;
74674;SDS011;63200;48.810;12.352;2023-03-01T16:06:41;26.90;;;14.30;;
74674;SDS011;63200;48.810;12.352;2023-03-01T16:09:07;27.90;;;14.95;;